Terminal Aerodrome Forecast
Issued by NWS Cleveland, OH

Home | Current Version | Previous Version | Text Only | Print | Product List | Glossary On
Versions: 1 2 3 4 5 6 7 8 9 10 11 12 13 14 15 16 17 18 19 20 21
618
FTUS41 KCLE 112327
TAFYNG
TAF
KYNG 112327Z 1200/1224 16006KT P6SM VCSH SCT025 OVC060
      TEMPO 1200/1201 3SM -SN BKN018
     FM120400 21008KT P6SM VCSH SCT035 BKN060
     FM120500 26012KT 4SM -SN OVC025
     FM120800 23008KT 1SM -SN SCT007 OVC015
     FM121400 31018G28KT 4SM -SHSN OVC018=

USA.gov is the U.S. government's official web portal to all federal, state and local government web resources and services.